Terminal Aerodrome Forecast
Issued by NWS

Home | Current Version | Previous Version | Graphics & Text | Print | Product List | Glossary On
Versions: 1 2 3 4 5 6 7 8 9 10 11 12 13 14 15 16 17 18 19 20 21 22
000
FTUS43 KABR 180427 AAA
TAFATY
TAF AMD
KATY 180427Z 1804/1824 VRB05KT P6SM VCSH SCT120 BKN200
      TEMPO 1804/1806 -SHRA BKN120 OVC200
     FM180600 17004KT P6SM BKN200
     FM180700 18004KT P6SM VCTS BKN110CB BKN200
     FM180900 17005KT P6SM BKN110
     FM181400 21005KT P6SM SCT140
     FM181800 27007KT P6SM SCT090
     FM182200 32009KT P6SM SCT090=

USA.gov is the U.S. government's official web portal to all federal, state and local government web resources and services.